sensor_id;sensor_type;location;lat;lon;timestamp;pressure;altitude;pressure_sealevel;temperature;humidity
68145;BME280;55400;51.824;-0.196;2023-02-22T00:03:18;100285.70999999999;;;7.39;76.02
68145;BME280;55400;51.824;-0.196;2023-02-22T00:07:18;100280.40999999999;;;7.42;76.02
68145;BME280;55400;51.824;-0.196;2023-02-22T00:15:18;100287.90000000001;;;7.39;75.84
68145;BME280;55400;51.824;-0.196;2023-02-22T00:19:17;100287.90000000001;;;7.33;75.80
68145;BME280;55400;51.824;-0.196;2023-02-22T00:23:18;100274.73;;;7.25;76.04
68145;BME280;55400;51.824;-0.196;2023-02-22T00:31:18;100266.79000000001;;;7.27;76.12
68145;BME280;55400;51.824;-0.196;2023-02-22T00:35:19;100239.84;;;7.29;76.21
68145;BME280;55400;51.824;-0.196;2023-02-22T00:39:18;100256.03;;;7.34;76.26
68145;BME280;55400;51.824;-0.196;2023-02-22T00:43:18;100266.74;;;7.36;76.26
68145;BME280;55400;51.824;-0.196;2023-02-22T00:47:18;100284.33;;;7.35;76.48
68145;BME280;55400;51.824;-0.196;2023-02-22T00:51:18;100282.92;;;7.34;76.62
68145;BME280;55400;51.824;-0.196;2023-02-22T00:55:18;100282.92;;;7.33;76.62
68145;BME280;55400;51.824;-0.196;2023-02-22T00:59:18;100257.3;;;7.27;76.59
68145;BME280;55400;51.824;-0.196;2023-02-22T01:03:18;100257.3;;;7.25;76.68
68145;BME280;55400;51.824;-0.196;2023-02-22T01:11:18;100260.75;;;7.22;76.89
68145;BME280;55400;51.824;-0.196;2023-02-22T01:15:18;100252.62;;;7.20;76.94
68145;BME280;55400;51.824;-0.196;2023-02-22T01:19:18;100254.97;;;7.18;77.04
68145;BME280;55400;51.824;-0.196;2023-02-22T01:27:18;100226.87;;;7.15;77.00
68145;BME280;55400;51.824;-0.196;2023-02-22T01:31:18;100217.7;;;7.12;77.25
68145;BME280;55400;51.824;-0.196;2023-02-22T01:35:19;100221.88;;;7.08;77.25
68145;BME280;55400;51.824;-0.196;2023-02-22T01:39:18;100226.47;;;7.04;77.83
68145;BME280;55400;51.824;-0.196;2023-02-22T01:43:19;100221.88;;;7.02;78.09
68145;BME280;55400;51.824;-0.196;2023-02-22T01:51:18;100228.61;;;7.03;78.17
68145;BME280;55400;51.824;-0.196;2023-02-22T01:55:18;100228.61;;;6.99;78.12
68145;BME280;55400;51.824;-0.196;2023-02-22T01:59:18;100231.16;;;7.01;78.28
68145;BME280;55400;51.824;-0.196;2023-02-22T02:03:18;100226.73;;;7.00;78.29
68145;BME280;55400;51.824;-0.196;2023-02-22T02:07:19;100229.14;;;6.97;78.29
68145;BME280;55400;51.824;-0.196;2023-02-22T02:11:19;100219.68000000001;;;6.92;78.39
68145;BME280;55400;51.824;-0.196;2023-02-22T02:15:20;100217.66;;;6.91;78.46
68145;BME280;55400;51.824;-0.196;2023-02-22T02:19:19;100205.42;;;6.92;78.55
68145;BME280;55400;51.824;-0.196;2023-02-22T02:23:25;100207.01000000001;;;6.91;78.58
68145;BME280;55400;51.824;-0.196;2023-02-22T02:35:19;100187.15;;;6.92;78.75
68145;BME280;55400;51.824;-0.196;2023-02-22T02:39:19;100187.15;;;6.94;78.79
68145;BME280;55400;51.824;-0.196;2023-02-22T02:55:18;100175.61;;;6.96;78.69
68145;BME280;55400;51.824;-0.196;2023-02-22T02:59:23;100182.17;;;6.95;78.67
68145;BME280;55400;51.824;-0.196;2023-02-22T03:03:23;100175.47;;;6.93;78.75
68145;BME280;55400;51.824;-0.196;2023-02-22T03:11:18;100168.96;;;6.92;78.75
68145;BME280;55400;51.824;-0.196;2023-02-22T03:15:21;100165.81;;;6.90;78.86
68145;BME280;55400;51.824;-0.196;2023-02-22T03:19:19;100162.25;;;6.89;78.86
68145;BME280;55400;51.824;-0.196;2023-02-22T03:27:19;100152.65000000001;;;6.86;78.89
68145;BME280;55400;51.824;-0.196;2023-02-22T03:31:18;100152.65000000001;;;6.85;78.92
68145;BME280;55400;51.824;-0.196;2023-02-22T03:35:19;100136.61;;;6.83;79.03
68145;BME280;55400;51.824;-0.196;2023-02-22T03:39:18;100138.37;;;6.81;79.07
68145;BME280;55400;51.824;-0.196;2023-02-22T03:51:18;100124.23999999999;;;6.78;79.23
68145;BME280;55400;51.824;-0.196;2023-02-22T03:55:18;100123.97;;;6.75;79.31
68145;BME280;55400;51.824;-0.196;2023-02-22T03:59:18;100125.08;;;6.74;79.35
68145;BME280;55400;51.824;-0.196;2023-02-22T04:03:18;100119.22;;;6.73;79.46
68145;BME280;55400;51.824;-0.196;2023-02-22T04:07:18;100119.36;;;6.69;79.39
68145;BME280;55400;51.824;-0.196;2023-02-22T04:11:18;100115.72;;;6.65;79.42
68145;BME280;55400;51.824;-0.196;2023-02-22T04:15:19;100111.94;;;6.64;79.46
68145;BME280;55400;51.824;-0.196;2023-02-22T04:19:18;100105.89;;;6.61;79.58
68145;BME280;55400;51.824;-0.196;2023-02-22T04:27:18;100090.52;;;6.62;79.61
68145;BME280;55400;51.824;-0.196;2023-02-22T04:31:18;100090.52;;;6.63;79.61
68145;BME280;55400;51.824;-0.196;2023-02-22T04:35:18;100094.44;;;6.62;79.66
68145;BME280;55400;51.824;-0.196;2023-02-22T04:39:18;100083.18000000001;;;6.64;79.74
68145;BME280;55400;51.824;-0.196;2023-02-22T04:55:18;100071.3;;;6.61;79.65
68145;BME280;55400;51.824;-0.196;2023-02-22T04:59:18;100079.49;;;6.58;79.61
68145;BME280;55400;51.824;-0.196;2023-02-22T05:03:18;100079.49;;;6.59;79.69
68145;BME280;55400;51.824;-0.196;2023-02-22T05:07:18;100077.64;;;6.57;79.76
68145;BME280;55400;51.824;-0.196;2023-02-22T05:11:18;100081.39;;;6.54;79.82
68145;BME280;55400;51.824;-0.196;2023-02-22T05:19:18;100080.62999999999;;;6.52;79.98
68145;BME280;55400;51.824;-0.196;2023-02-22T05:23:18;100075.7;;;6.51;79.98
68145;BME280;55400;51.824;-0.196;2023-02-22T05:27:18;100070.34999999999;;;6.54;80.08
68145;BME280;55400;51.824;-0.196;2023-02-22T05:31:18;100071.41;;;6.55;80.00
68145;BME280;55400;51.824;-0.196;2023-02-22T05:35:19;100068.26999999999;;;6.57;80.04
68145;BME280;55400;51.824;-0.196;2023-02-22T05:39:18;100068.26999999999;;;6.58;80.04
68145;BME280;55400;51.824;-0.196;2023-02-22T05:43:18;100052.84;;;6.59;80.08
68145;BME280;55400;51.824;-0.196;2023-02-22T05:51:19;100051.87;;;6.61;80.02
68145;BME280;55400;51.824;-0.196;2023-02-22T05:55:19;100045.39;;;6.60;80.11
68145;BME280;55400;51.824;-0.196;2023-02-22T05:59:18;100049.51;;;6.61;80.17
68145;BME280;55400;51.824;-0.196;2023-02-22T06:03:18;100049.51;;;6.59;80.12
68145;BME280;55400;51.824;-0.196;2023-02-22T06:07:18;100048.64;;;6.60;80.30
68145;BME280;55400;51.824;-0.196;2023-02-22T06:11:18;100045.36;;;6.58;80.33
68145;BME280;55400;51.824;-0.196;2023-02-22T06:15:19;100045.28;;;6.59;80.43
68145;BME280;55400;51.824;-0.196;2023-02-22T06:19:18;100049.79;;;6.60;80.47
68145;BME280;55400;51.824;-0.196;2023-02-22T06:23:18;100044.06;;;6.61;80.54
68145;BME280;55400;51.824;-0.196;2023-02-22T06:27:18;100036.46;;;6.65;80.56
68145;BME280;55400;51.824;-0.196;2023-02-22T06:39:19;100041.85;;;6.66;80.56
68145;BME280;55400;51.824;-0.196;2023-02-22T06:43:18;100041.85;;;6.68;80.64
68145;BME280;55400;51.824;-0.196;2023-02-22T06:47:19;100045.72;;;6.66;80.64
68145;BME280;55400;51.824;-0.196;2023-02-22T07:03:19;100061.28;;;6.65;80.89
68145;BME280;55400;51.824;-0.196;2023-02-22T07:19:19;100065.08;;;6.64;80.99
68145;BME280;55400;51.824;-0.196;2023-02-22T07:27:19;100079.31999999999;;;6.63;81.09
68145;BME280;55400;51.824;-0.196;2023-02-22T07:31:19;100086.06999999999;;;6.60;81.13
68145;BME280;55400;51.824;-0.196;2023-02-22T07:35:20;100090.99;;;6.55;81.23
68145;BME280;55400;51.824;-0.196;2023-02-22T07:39:19;100090.99;;;6.52;81.40
68145;BME280;55400;51.824;-0.196;2023-02-22T07:47:19;100092.88;;;6.51;81.66
68145;BME280;55400;51.824;-0.196;2023-02-22T07:51:19;100091.63;;;6.53;81.63
68145;BME280;55400;51.824;-0.196;2023-02-22T07:55:20;100089.51;;;6.54;81.71
68145;BME280;55400;51.824;-0.196;2023-02-22T07:59:19;100089.51;;;6.55;81.66
68145;BME280;55400;51.824;-0.196;2023-02-22T08:03:20;100093.48;;;6.56;81.70
68145;BME280;55400;51.824;-0.196;2023-02-22T08:07:19;100082.78;;;6.59;81.76
68145;BME280;55400;51.824;-0.196;2023-02-22T08:11:19;100086.78;;;6.62;81.75
68145;BME280;55400;51.824;-0.196;2023-02-22T08:15:20;100078.61;;;6.64;81.81
68145;BME280;55400;51.824;-0.196;2023-02-22T08:19:19;100078.61;;;6.69;81.81
68145;BME280;55400;51.824;-0.196;2023-02-22T08:23:20;100080.69;;;6.72;81.84
68145;BME280;55400;51.824;-0.196;2023-02-22T08:27:21;100083.89;;;6.73;81.89
68145;BME280;55400;51.824;-0.196;2023-02-22T08:39:19;100088.79;;;6.69;82.01
68145;BME280;55400;51.824;-0.196;2023-02-22T08:43:19;100083.84;;;6.66;82.24
68145;BME280;55400;51.824;-0.196;2023-02-22T08:47:19;100082.84;;;6.63;82.20
68145;BME280;55400;51.824;-0.196;2023-02-22T08:51:20;100091.78;;;6.65;82.20
68145;BME280;55400;51.824;-0.196;2023-02-22T08:55:19;100095.42;;;6.66;82.47
68145;BME280;55400;51.824;-0.196;2023-02-22T08:59:19;100093.81;;;6.78;82.73
68145;BME280;55400;51.824;-0.196;2023-02-22T09:03:19;100095.73000000001;;;6.92;82.58
68145;BME280;55400;51.824;-0.196;2023-02-22T09:07:19;100094.25;;;6.98;82.04
68145;BME280;55400;51.824;-0.196;2023-02-22T09:11:19;100094.42;;;7.06;82.04
68145;BME280;55400;51.824;-0.196;2023-02-22T09:15:19;100094.53;;;7.11;81.92
68145;BME280;55400;51.824;-0.196;2023-02-22T09:19:19;100094.53;;;7.17;81.86
68145;BME280;55400;51.824;-0.196;2023-02-22T09:23:19;100096.25;;;7.18;81.80
68145;BME280;55400;51.824;-0.196;2023-02-22T09:27:19;100096.56;;;7.21;81.65
68145;BME280;55400;51.824;-0.196;2023-02-22T09:39:19;100098.8;;;7.27;81.78
68145;BME280;55400;51.824;-0.196;2023-02-22T09:43:22;100104.38;;;7.31;81.79
68145;BME280;55400;51.824;-0.196;2023-02-22T09:47:20;100107.76;;;7.35;81.75
68145;BME280;55400;51.824;-0.196;2023-02-22T09:51:19;100103.12;;;7.36;81.74
68145;BME280;55400;51.824;-0.196;2023-02-22T09:55:23;100105.62999999999;;;7.35;81.43
68145;BME280;55400;51.824;-0.196;2023-02-22T09:59:21;100105.62999999999;;;7.38;81.56
68145;BME280;55400;51.824;-0.196;2023-02-22T10:03:21;100108.06;;;7.36;81.67
68145;BME280;55400;51.824;-0.196;2023-02-22T10:11:22;100105.86;;;7.34;81.89
68145;BME280;55400;51.824;-0.196;2023-02-22T10:15:25;100104.16;;;7.30;81.88
68145;BME280;55400;51.824;-0.196;2023-02-22T10:19:21;100107.56;;;7.32;82.10
68145;BME280;55400;51.824;-0.196;2023-02-22T10:23:21;100107.56;;;7.35;82.10
68145;BME280;55400;51.824;-0.196;2023-02-22T10:35:20;100108.64;;;7.39;82.28
68145;BME280;55400;51.824;-0.196;2023-02-22T10:39:21;100104.63;;;7.41;82.41
68145;BME280;55400;51.824;-0.196;2023-02-22T10:43:19;100103.77;;;7.43;82.44
68145;BME280;55400;51.824;-0.196;2023-02-22T10:47:19;100103.77;;;7.50;82.27
68145;BME280;55400;51.824;-0.196;2023-02-22T10:51:19;100106.02;;;7.55;82.23
68145;BME280;55400;51.824;-0.196;2023-02-22T10:55:19;100106.02;;;7.58;82.28
68145;BME280;55400;51.824;-0.196;2023-02-22T10:59:27;100106.81;;;7.62;82.30
68145;BME280;55400;51.824;-0.196;2023-02-22T11:03:20;100107.48;;;7.59;82.45
68145;BME280;55400;51.824;-0.196;2023-02-22T11:07:22;100107.48;;;7.60;82.26
68145;BME280;55400;51.824;-0.196;2023-02-22T11:11:20;100106.48;;;7.65;82.27
68145;BME280;55400;51.824;-0.196;2023-02-22T11:19:20;100109.45;;;7.62;82.41
68145;BME280;55400;51.824;-0.196;2023-02-22T11:23:19;100106.84;;;7.61;82.35
68145;BME280;55400;51.824;-0.196;2023-02-22T11:27:22;100106.84;;;7.58;82.21
68145;BME280;55400;51.824;-0.196;2023-02-22T11:31:21;100102.09999999999;;;7.61;82.27
68145;BME280;55400;51.824;-0.196;2023-02-22T11:35:29;100108.54000000001;;;7.59;82.31
68145;BME280;55400;51.824;-0.196;2023-02-22T11:39:20;100110.29999999999;;;7.54;82.31
68145;BME280;55400;51.824;-0.196;2023-02-22T11:47:19;100109.2;;;7.52;82.40
68145;BME280;55400;51.824;-0.196;2023-02-22T11:55:21;100114.0;;;7.56;82.50
68145;BME280;55400;51.824;-0.196;2023-02-22T11:59:24;100117.8;;;7.60;82.50
68145;BME280;55400;51.824;-0.196;2023-02-22T12:03:26;100115.88;;;7.63;82.46
68145;BME280;55400;51.824;-0.196;2023-02-22T12:07:22;100114.59;;;7.64;82.56
68145;BME280;55400;51.824;-0.196;2023-02-22T12:11:21;100119.45;;;7.67;82.46
68145;BME280;55400;51.824;-0.196;2023-02-22T12:19:20;100115.28;;;7.68;82.57
68145;BME280;55400;51.824;-0.196;2023-02-22T12:23:21;100114.54;;;7.66;82.57
68145;BME280;55400;51.824;-0.196;2023-02-22T12:27:21;100114.54;;;7.70;82.40
68145;BME280;55400;51.824;-0.196;2023-02-22T12:31:20;100110.94;;;7.74;82.45
68145;BME280;55400;51.824;-0.196;2023-02-22T12:35:20;100109.05;;;7.80;82.39
68145;BME280;55400;51.824;-0.196;2023-02-22T12:39:25;100111.92;;;7.83;82.24
68145;BME280;55400;51.824;-0.196;2023-02-22T12:43:21;100111.92;;;7.86;82.21
68145;BME280;55400;51.824;-0.196;2023-02-22T12:47:20;100112.85;;;7.89;82.15
68145;BME280;55400;51.824;-0.196;2023-02-22T12:51:22;100111.86;;;7.92;82.05
68145;BME280;55400;51.824;-0.196;2023-02-22T12:55:20;100116.6;;;7.96;82.01
68145;BME280;55400;51.824;-0.196;2023-02-22T12:59:21;100119.23000000001;;;7.98;81.88
68145;BME280;55400;51.824;-0.196;2023-02-22T13:03:25;100119.23000000001;;;8.01;81.88
68145;BME280;55400;51.824;-0.196;2023-02-22T13:11:21;100124.59999999999;;;8.04;81.73
68145;BME280;55400;51.824;-0.196;2023-02-22T13:19:25;100121.61;;;8.03;81.83
68145;BME280;55400;51.824;-0.196;2023-02-22T13:23:24;100126.56;;;8.02;81.57
68145;BME280;55400;51.824;-0.196;2023-02-22T13:27:22;100121.06;;;8.01;81.73
68145;BME280;55400;51.824;-0.196;2023-02-22T13:31:29;100121.89;;;8.02;81.79
68145;BME280;55400;51.824;-0.196;2023-02-22T13:35:23;100126.01;;;8.04;81.71
68145;BME280;55400;51.824;-0.196;2023-02-22T13:39:24;100125.76000000001;;;8.05;81.78
68145;BME280;55400;51.824;-0.196;2023-02-22T13:43:23;100125.58;;;8.07;81.69
68145;BME280;55400;51.824;-0.196;2023-02-22T13:51:29;100127.37;;;8.07;81.72
68145;BME280;55400;51.824;-0.196;2023-02-22T13:55:21;100124.47;;;8.05;81.55
68145;BME280;55400;51.824;-0.196;2023-02-22T13:59:21;100125.05;;;8.03;81.55
68145;BME280;55400;51.824;-0.196;2023-02-22T14:03:28;100123.1;;;7.98;81.20
68145;BME280;55400;51.824;-0.196;2023-02-22T14:15:20;100126.22;;;8.14;80.53
68145;BME280;55400;51.824;-0.196;2023-02-22T14:19:20;100126.22;;;8.19;80.53
68145;BME280;55400;51.824;-0.196;2023-02-22T14:23:28;100129.52;;;8.24;80.57
68145;BME280;55400;51.824;-0.196;2023-02-22T14:27:20;100127.11;;;8.26;80.38
68145;BME280;55400;51.824;-0.196;2023-02-22T14:31:21;100132.48;;;8.25;80.37
68145;BME280;55400;51.824;-0.196;2023-02-22T14:35:20;100137.73;;;8.20;80.14
68145;BME280;55400;51.824;-0.196;2023-02-22T14:39:22;100148.13;;;8.17;80.13
68145;BME280;55400;51.824;-0.196;2023-02-22T14:43:20;100148.13;;;8.11;79.87
68145;BME280;55400;51.824;-0.196;2023-02-22T14:47:21;100147.78;;;8.05;80.18
68145;BME280;55400;51.824;-0.196;2023-02-22T14:51:22;100145.33;;;8.00;79.71
68145;BME280;55400;51.824;-0.196;2023-02-22T14:55:21;100146.47;;;7.98;79.48
68145;BME280;55400;51.824;-0.196;2023-02-22T14:59:21;100146.93;;;7.95;79.48
68145;BME280;55400;51.824;-0.196;2023-02-22T15:03:24;100149.47;;;7.92;78.92
68145;BME280;55400;51.824;-0.196;2023-02-22T15:07:21;100149.47;;;7.93;79.09
68145;BME280;55400;51.824;-0.196;2023-02-22T15:11:20;100147.43999999999;;;7.89;78.55
68145;BME280;55400;51.824;-0.196;2023-02-22T15:15:21;100147.43999999999;;;7.90;78.97
68145;BME280;55400;51.824;-0.196;2023-02-22T15:19:21;100148.83;;;7.93;79.12
68145;BME280;55400;51.824;-0.196;2023-02-22T15:23:20;100152.01;;;7.99;78.79
68145;BME280;55400;51.824;-0.196;2023-02-22T15:27:20;100156.75;;;8.09;77.90
68145;BME280;55400;51.824;-0.196;2023-02-22T15:31:22;100156.75;;;8.18;77.90
68145;BME280;55400;51.824;-0.196;2023-02-22T15:35:25;100154.39;;;8.27;77.36
68145;BME280;55400;51.824;-0.196;2023-02-22T15:39:21;100154.39;;;8.36;77.36
68145;BME280;55400;51.824;-0.196;2023-02-22T15:43:21;100159.51;;;8.42;77.76
68145;BME280;55400;51.824;-0.196;2023-02-22T15:47:21;100163.39;;;8.46;77.44
68145;BME280;55400;51.824;-0.196;2023-02-22T15:51:20;100168.20999999999;;;8.44;77.44
68145;BME280;55400;51.824;-0.196;2023-02-22T15:55:20;100168.20999999999;;;8.42;77.38
68145;BME280;55400;51.824;-0.196;2023-02-22T15:59:20;100169.8;;;8.43;76.91
68145;BME280;55400;51.824;-0.196;2023-02-22T16:03:20;100172.83;;;8.55;77.34
68145;BME280;55400;51.824;-0.196;2023-02-22T16:07:20;100183.39;;;8.68;77.22
68145;BME280;55400;51.824;-0.196;2023-02-22T16:11:21;100190.17;;;8.81;76.74
68145;BME280;55400;51.824;-0.196;2023-02-22T16:15:20;100191.76999999999;;;8.88;75.72
68145;BME280;55400;51.824;-0.196;2023-02-22T16:19:26;100191.76999999999;;;8.94;75.72
68145;BME280;55400;51.824;-0.196;2023-02-22T16:23:21;100193.98;;;8.89;74.27
68145;BME280;55400;51.824;-0.196;2023-02-22T16:27:21;100193.98;;;8.88;74.27
68145;BME280;55400;51.824;-0.196;2023-02-22T16:31:21;100189.59;;;8.86;73.85
68145;BME280;55400;51.824;-0.196;2023-02-22T16:35:20;100189.59;;;8.85;73.85
68145;BME280;55400;51.824;-0.196;2023-02-22T16:47:20;100202.19;;;8.84;72.79
68145;BME280;55400;51.824;-0.196;2023-02-22T16:51:21;100202.19;;;8.93;73.26
68145;BME280;55400;51.824;-0.196;2023-02-22T16:55:20;100203.98;;;9.29;73.26
68145;BME280;55400;51.824;-0.196;2023-02-22T16:59:20;100202.91;;;9.54;72.26
68145;BME280;55400;51.824;-0.196;2023-02-22T17:03:20;100203.72;;;9.51;71.55
68145;BME280;55400;51.824;-0.196;2023-02-22T17:07:20;100218.19;;;9.41;71.39
68145;BME280;55400;51.824;-0.196;2023-02-22T17:11:20;100223.41;;;9.24;71.17
68145;BME280;55400;51.824;-0.196;2023-02-22T17:15:22;100223.61;;;9.14;72.21
68145;BME280;55400;51.824;-0.196;2023-02-22T17:19:21;100225.45;;;9.10;72.21
68145;BME280;55400;51.824;-0.196;2023-02-22T17:23:20;100225.45;;;9.06;72.14
68145;BME280;55400;51.824;-0.196;2023-02-22T17:27:20;100228.74;;;9.02;72.17
68145;BME280;55400;51.824;-0.196;2023-02-22T17:31:21;100237.14;;;8.97;71.95
68145;BME280;55400;51.824;-0.196;2023-02-22T17:35:21;100239.73;;;8.93;72.30
68145;BME280;55400;51.824;-0.196;2023-02-22T17:39:20;100243.02;;;8.85;72.20
68145;BME280;55400;51.824;-0.196;2023-02-22T17:43:21;100244.53;;;8.79;72.49
68145;BME280;55400;51.824;-0.196;2023-02-22T17:47:20;100249.32;;;8.74;72.49
68145;BME280;55400;51.824;-0.196;2023-02-22T17:51:21;100249.32;;;8.65;72.45
68145;BME280;55400;51.824;-0.196;2023-02-22T17:55:21;100249.91;;;8.57;72.26
68145;BME280;55400;51.824;-0.196;2023-02-22T17:59:20;100256.5;;;8.46;72.07
68145;BME280;55400;51.824;-0.196;2023-02-22T18:03:20;100259.63;;;8.35;71.92
68145;BME280;55400;51.824;-0.196;2023-02-22T18:07:20;100266.45999999999;;;8.28;71.84
68145;BME280;55400;51.824;-0.196;2023-02-22T18:11:21;100266.45999999999;;;8.17;72.25
68145;BME280;55400;51.824;-0.196;2023-02-22T18:15:21;100278.33;;;8.03;72.09
68145;BME280;55400;51.824;-0.196;2023-02-22T18:19:20;100278.09999999999;;;7.98;72.26
68145;BME280;55400;51.824;-0.196;2023-02-22T18:23:21;100281.81;;;7.88;71.70
68145;BME280;55400;51.824;-0.196;2023-02-22T18:27:20;100281.81;;;7.84;72.04
68145;BME280;55400;51.824;-0.196;2023-02-22T18:31:21;100280.59;;;7.71;71.41
68145;BME280;55400;51.824;-0.196;2023-02-22T18:35:20;100283.37;;;7.59;71.52
68145;BME280;55400;51.824;-0.196;2023-02-22T18:39:21;100286.55;;;7.51;71.52
68145;BME280;55400;51.824;-0.196;2023-02-22T18:47:21;100294.75;;;7.57;72.02
68145;BME280;55400;51.824;-0.196;2023-02-22T18:51:21;100297.51;;;7.56;71.36
68145;BME280;55400;51.824;-0.196;2023-02-22T18:55:21;100299.91;;;7.52;71.36
68145;BME280;55400;51.824;-0.196;2023-02-22T18:59:20;100299.91;;;7.43;71.01
68145;BME280;55400;51.824;-0.196;2023-02-22T19:03:21;100300.95;;;7.41;71.54
68145;BME280;55400;51.824;-0.196;2023-02-22T19:07:21;100295.68000000001;;;7.32;71.31
68145;BME280;55400;51.824;-0.196;2023-02-22T19:11:22;100296.91;;;7.26;71.31
68145;BME280;55400;51.824;-0.196;2023-02-22T19:15:21;100303.34;;;7.19;70.83
68145;BME280;55400;51.824;-0.196;2023-02-22T19:19:21;100309.39;;;7.18;71.44
68145;BME280;55400;51.824;-0.196;2023-02-22T19:23:21;100309.39;;;7.19;71.32
68145;BME280;55400;51.824;-0.196;2023-02-22T19:35:21;100318.24;;;7.10;71.36
68145;BME280;55400;51.824;-0.196;2023-02-22T19:39:21;100326.56;;;7.01;71.51
68145;BME280;55400;51.824;-0.196;2023-02-22T19:43:21;100333.06;;;7.00;71.51
68145;BME280;55400;51.824;-0.196;2023-02-22T19:47:21;100335.02;;;7.01;71.48
68145;BME280;55400;51.824;-0.196;2023-02-22T19:51:21;100335.02;;;6.97;71.48
68145;BME280;55400;51.824;-0.196;2023-02-22T19:55:21;100330.81;;;6.89;71.67
68145;BME280;55400;51.824;-0.196;2023-02-22T19:59:21;100325.59;;;6.80;71.58
68145;BME280;55400;51.824;-0.196;2023-02-22T20:03:21;100342.83;;;6.74;72.07
68145;BME280;55400;51.824;-0.196;2023-02-22T20:07:21;100346.55;;;6.75;72.07
68145;BME280;55400;51.824;-0.196;2023-02-22T20:11:21;100351.29;;;6.79;72.16
68145;BME280;55400;51.824;-0.196;2023-02-22T20:15:21;100351.29;;;6.76;72.10
68145;BME280;55400;51.824;-0.196;2023-02-22T20:19:21;100346.79;;;6.70;72.12
68145;BME280;55400;51.824;-0.196;2023-02-22T20:23:21;100351.89;;;6.63;72.08
68145;BME280;55400;51.824;-0.196;2023-02-22T20:27:21;100356.22;;;6.57;72.15
68145;BME280;55400;51.824;-0.196;2023-02-22T20:31:21;100359.20999999999;;;6.59;72.28
68145;BME280;55400;51.824;-0.196;2023-02-22T20:35:21;100359.16;;;6.63;72.26
68145;BME280;55400;51.824;-0.196;2023-02-22T20:43:21;100364.73;;;6.61;72.08
68145;BME280;55400;51.824;-0.196;2023-02-22T20:47:21;100364.73;;;6.62;72.16
68145;BME280;55400;51.824;-0.196;2023-02-22T20:55:21;100368.16;;;6.60;72.16
68145;BME280;55400;51.824;-0.196;2023-02-22T20:59:21;100376.29;;;6.57;72.30
68145;BME280;55400;51.824;-0.196;2023-02-22T21:03:21;100377.97;;;6.55;72.29
68145;BME280;55400;51.824;-0.196;2023-02-22T21:07:21;100372.66;;;6.53;72.37
68145;BME280;55400;51.824;-0.196;2023-02-22T21:11:21;100377.04;;;6.47;72.24
68145;BME280;55400;51.824;-0.196;2023-02-22T21:15:21;100381.52;;;6.43;72.27
68145;BME280;55400;51.824;-0.196;2023-02-22T21:19:21;100381.52;;;6.42;72.47
68145;BME280;55400;51.824;-0.196;2023-02-22T21:23:21;100401.79000000001;;;6.45;72.67
68145;BME280;55400;51.824;-0.196;2023-02-22T21:27:21;100415.3;;;6.46;72.52
68145;BME280;55400;51.824;-0.196;2023-02-22T21:31:22;100417.5;;;6.48;72.58
68145;BME280;55400;51.824;-0.196;2023-02-22T21:35:21;100417.5;;;6.49;72.69
68145;BME280;55400;51.824;-0.196;2023-02-22T21:39:21;100412.41;;;6.44;72.29
68145;BME280;55400;51.824;-0.196;2023-02-22T21:43:21;100424.59999999999;;;6.36;72.29
68145;BME280;55400;51.824;-0.196;2023-02-22T21:47:21;100431.12999999999;;;6.30;72.64
68145;BME280;55400;51.824;-0.196;2023-02-22T21:55:21;100431.03;;;6.23;72.60
68145;BME280;55400;51.824;-0.196;2023-02-22T21:59:21;100431.03;;;6.15;72.60
68145;BME280;55400;51.824;-0.196;2023-02-22T22:03:21;100434.42;;;6.10;72.73
68145;BME280;55400;51.824;-0.196;2023-02-22T22:07:21;100434.14;;;6.09;73.13
68145;BME280;55400;51.824;-0.196;2023-02-22T22:11:21;100434.77;;;6.05;73.58
68145;BME280;55400;51.824;-0.196;2023-02-22T22:15:21;100437.53;;;6.07;73.58
68145;BME280;55400;51.824;-0.196;2023-02-22T22:19:21;100439.56;;;6.09;73.70
68145;BME280;55400;51.824;-0.196;2023-02-22T22:27:21;100439.78;;;6.08;73.72
68145;BME280;55400;51.824;-0.196;2023-02-22T22:31:21;100439.78;;;6.02;73.83
68145;BME280;55400;51.824;-0.196;2023-02-22T22:35:21;100432.75;;;5.96;74.06
68145;BME280;55400;51.824;-0.196;2023-02-22T22:39:21;100432.75;;;5.93;74.34
68145;BME280;55400;51.824;-0.196;2023-02-22T22:43:21;100442.04999999999;;;5.91;74.59
68145;BME280;55400;51.824;-0.196;2023-02-22T22:47:21;100437.28;;;5.87;74.59
68145;BME280;55400;51.824;-0.196;2023-02-22T22:51:21;100436.8;;;5.85;74.74
68145;BME280;55400;51.824;-0.196;2023-02-22T22:55:21;100437.44;;;5.83;74.90
68145;BME280;55400;51.824;-0.196;2023-02-22T23:03:21;100453.29000000001;;;5.77;75.03
68145;BME280;55400;51.824;-0.196;2023-02-22T23:07:21;100461.83;;;5.75;75.36
68145;BME280;55400;51.824;-0.196;2023-02-22T23:11:21;100461.31;;;5.76;75.36
68145;BME280;55400;51.824;-0.196;2023-02-22T23:15:21;100461.31;;;5.74;75.50
68145;BME280;55400;51.824;-0.196;2023-02-22T23:19:21;100467.16;;;5.72;75.76
68145;BME280;55400;51.824;-0.196;2023-02-22T23:23:22;100467.16;;;5.68;75.76
68145;BME280;55400;51.824;-0.196;2023-02-22T23:27:21;100478.81;;;5.71;75.84
68145;BME280;55400;51.824;-0.196;2023-02-22T23:31:22;100478.81;;;5.65;76.03
68145;BME280;55400;51.824;-0.196;2023-02-22T23:35:21;100484.39;;;5.68;76.26
68145;BME280;55400;51.824;-0.196;2023-02-22T23:39:22;100482.2;;;5.73;76.31
68145;BME280;55400;51.824;-0.196;2023-02-22T23:43:21;100482.2;;;5.75;76.35
68145;BME280;55400;51.824;-0.196;2023-02-22T23:47:21;100486.35;;;5.73;76.32
68145;BME280;55400;51.824;-0.196;2023-02-22T23:51:22;100495.06;;;5.76;76.38
68145;BME280;55400;51.824;-0.196;2023-02-22T23:55:22;100504.0;;;5.79;76.46
68145;BME280;55400;51.824;-0.196;2023-02-22T23:59:22;100504.0;;;5.82;76.46
